sensor_id;sensor_type;location;lat;lon;timestamp;P1;durP1;ratioP1;P2;durP2;ratioP2
55493;SDS011;41355;50.390;19.096;2023-05-14T00:00:41;11.93;;;5.60;;
55493;SDS011;41355;50.390;19.096;2023-05-14T00:03:07;12.73;;;5.65;;
55493;SDS011;41355;50.390;19.096;2023-05-14T00:05:33;11.20;;;5.40;;
55493;SDS011;41355;50.390;19.096;2023-05-14T00:07:59;11.65;;;5.40;;
55493;SDS011;41355;50.390;19.096;2023-05-14T00:10:26;10.88;;;5.50;;
55493;SDS011;41355;50.390;19.096;2023-05-14T00:12:52;11.00;;;5.50;;
55493;SDS011;41355;50.390;19.096;2023-05-14T00:15:18;11.77;;;5.38;;
55493;SDS011;41355;50.390;19.096;2023-05-14T00:17:44;10.38;;;5.07;;
55493;SDS011;41355;50.390;19.096;2023-05-14T00:20:10;11.55;;;5.38;;
55493;SDS011;41355;50.390;19.096;2023-05-14T00:22:37;11.63;;;5.85;;
55493;SDS011;41355;50.390;19.096;2023-05-14T00:25:05;12.98;;;5.93;;
55493;SDS011;41355;50.390;19.096;2023-05-14T00:27:32;9.85;;;5.00;;
55493;SDS011;41355;50.390;19.096;2023-05-14T00:29:58;10.50;;;5.30;;
55493;SDS011;41355;50.390;19.096;2023-05-14T00:32:24;9.82;;;4.85;;
55493;SDS011;41355;50.390;19.096;2023-05-14T00:34:50;10.15;;;5.75;;
55493;SDS011;41355;50.390;19.096;2023-05-14T00:37:16;10.57;;;5.05;;
55493;SDS011;41355;50.390;19.096;2023-05-14T00:39:42;11.23;;;5.18;;
55493;SDS011;41355;50.390;19.096;2023-05-14T00:42:08;10.32;;;5.07;;
55493;SDS011;41355;50.390;19.096;2023-05-14T00:44:34;11.93;;;5.32;;
55493;SDS011;41355;50.390;19.096;2023-05-14T00:47:00;11.52;;;5.45;;
55493;SDS011;41355;50.390;19.096;2023-05-14T00:49:26;11.00;;;4.95;;
55493;SDS011;41355;50.390;19.096;2023-05-14T00:51:52;10.35;;;5.32;;
55493;SDS011;41355;50.390;19.096;2023-05-14T00:54:19;10.43;;;4.78;;
55493;SDS011;41355;50.390;19.096;2023-05-14T00:56:45;10.27;;;5.43;;
55493;SDS011;41355;50.390;19.096;2023-05-14T00:59:12;12.00;;;5.00;;
55493;SDS011;41355;50.390;19.096;2023-05-14T01:01:38;10.10;;;5.20;;
55493;SDS011;41355;50.390;19.096;2023-05-14T01:04:05;10.10;;;4.93;;
55493;SDS011;41355;50.390;19.096;2023-05-14T01:14:09;10.05;;;4.85;;
55493;SDS011;41355;50.390;19.096;2023-05-14T01:16:39;13.27;;;5.65;;
55493;SDS011;41355;50.390;19.096;2023-05-14T01:19:06;11.20;;;5.82;;
55493;SDS011;41355;50.390;19.096;2023-05-14T01:21:35;13.68;;;5.40;;
55493;SDS011;41355;50.390;19.096;2023-05-14T01:24:02;11.45;;;5.72;;
55493;SDS011;41355;50.390;19.096;2023-05-14T01:26:28;9.43;;;4.22;;
55493;SDS011;41355;50.390;19.096;2023-05-14T01:28:57;14.65;;;5.88;;
55493;SDS011;41355;50.390;19.096;2023-05-14T01:31:25;11.80;;;6.32;;
55493;SDS011;41355;50.390;19.096;2023-05-14T01:33:53;9.93;;;5.50;;
55493;SDS011;41355;50.390;19.096;2023-05-14T01:36:21;11.73;;;5.68;;
55493;SDS011;41355;50.390;19.096;2023-05-14T01:38:47;13.27;;;4.95;;
55493;SDS011;41355;50.390;19.096;2023-05-14T01:41:15;11.35;;;5.40;;
55493;SDS011;41355;50.390;19.096;2023-05-14T01:43:41;10.13;;;4.57;;
55493;SDS011;41355;50.390;19.096;2023-05-14T01:46:07;11.07;;;5.53;;
55493;SDS011;41355;50.390;19.096;2023-05-14T01:48:33;10.55;;;5.25;;
55493;SDS011;41355;50.390;19.096;2023-05-14T01:50:59;11.65;;;5.28;;
55493;SDS011;41355;50.390;19.096;2023-05-14T01:53:26;11.10;;;6.05;;
55493;SDS011;41355;50.390;19.096;2023-05-14T01:55:52;13.07;;;5.43;;
55493;SDS011;41355;50.390;19.096;2023-05-14T01:58:18;11.20;;;5.40;;
55493;SDS011;41355;50.390;19.096;2023-05-14T02:00:44;14.95;;;5.95;;
55493;SDS011;41355;50.390;19.096;2023-05-14T02:03:10;9.25;;;4.85;;
55493;SDS011;41355;50.390;19.096;2023-05-14T02:05:36;10.77;;;5.75;;
55493;SDS011;41355;50.390;19.096;2023-05-14T02:08:03;11.15;;;5.65;;
55493;SDS011;41355;50.390;19.096;2023-05-14T02:10:29;9.90;;;5.47;;
55493;SDS011;41355;50.390;19.096;2023-05-14T02:12:55;11.05;;;4.88;;
55493;SDS011;41355;50.390;19.096;2023-05-14T02:15:21;13.15;;;5.65;;
55493;SDS011;41355;50.390;19.096;2023-05-14T02:17:47;10.88;;;5.88;;
55493;SDS011;41355;50.390;19.096;2023-05-14T02:20:13;10.80;;;4.88;;
55493;SDS011;41355;50.390;19.096;2023-05-14T02:22:39;11.85;;;5.97;;
55493;SDS011;41355;50.390;19.096;2023-05-14T02:25:10;10.77;;;5.63;;
55493;SDS011;41355;50.390;19.096;2023-05-14T02:27:36;12.73;;;5.95;;
55493;SDS011;41355;50.390;19.096;2023-05-14T02:30:02;13.18;;;5.95;;
55493;SDS011;41355;50.390;19.096;2023-05-14T02:32:29;13.20;;;6.55;;
55493;SDS011;41355;50.390;19.096;2023-05-14T02:34:55;11.07;;;6.03;;
55493;SDS011;41355;50.390;19.096;2023-05-14T02:37:20;9.70;;;5.30;;
55493;SDS011;41355;50.390;19.096;2023-05-14T02:39:47;10.32;;;6.18;;
55493;SDS011;41355;50.390;19.096;2023-05-14T02:42:13;11.38;;;6.07;;
55493;SDS011;41355;50.390;19.096;2023-05-14T02:44:39;11.25;;;5.90;;
55493;SDS011;41355;50.390;19.096;2023-05-14T02:47:05;13.57;;;6.60;;
55493;SDS011;41355;50.390;19.096;2023-05-14T02:49:31;15.40;;;7.15;;
55493;SDS011;41355;50.390;19.096;2023-05-14T02:51:57;14.18;;;6.93;;
55493;SDS011;41355;50.390;19.096;2023-05-14T02:54:24;12.13;;;6.90;;
55493;SDS011;41355;50.390;19.096;2023-05-14T02:56:51;12.90;;;6.80;;
55493;SDS011;41355;50.390;19.096;2023-05-14T02:59:17;14.82;;;7.53;;
55493;SDS011;41355;50.390;19.096;2023-05-14T03:01:43;17.88;;;7.72;;
55493;SDS011;41355;50.390;19.096;2023-05-14T03:04:09;13.00;;;6.60;;
55493;SDS011;41355;50.390;19.096;2023-05-14T03:06:35;16.83;;;7.25;;
55493;SDS011;41355;50.390;19.096;2023-05-14T03:09:01;15.90;;;7.72;;
55493;SDS011;41355;50.390;19.096;2023-05-14T03:11:27;18.75;;;7.88;;
55493;SDS011;41355;50.390;19.096;2023-05-14T03:13:53;16.70;;;8.38;;
55493;SDS011;41355;50.390;19.096;2023-05-14T03:16:19;13.98;;;6.93;;
55493;SDS011;41355;50.390;19.096;2023-05-14T03:18:45;18.58;;;8.40;;
55493;SDS011;41355;50.390;19.096;2023-05-14T03:21:11;17.58;;;8.02;;
55493;SDS011;41355;50.390;19.096;2023-05-14T03:23:37;17.92;;;8.63;;
55493;SDS011;41355;50.390;19.096;2023-05-14T03:26:03;13.48;;;7.93;;
55493;SDS011;41355;50.390;19.096;2023-05-14T03:28:29;25.88;;;9.35;;
55493;SDS011;41355;50.390;19.096;2023-05-14T03:30:55;18.92;;;8.63;;
55493;SDS011;41355;50.390;19.096;2023-05-14T03:33:21;19.92;;;9.57;;
55493;SDS011;41355;50.390;19.096;2023-05-14T03:35:47;17.02;;;8.30;;
55493;SDS011;41355;50.390;19.096;2023-05-14T03:38:13;17.13;;;7.97;;
55493;SDS011;41355;50.390;19.096;2023-05-14T03:40:39;16.45;;;8.38;;
55493;SDS011;41355;50.390;19.096;2023-05-14T03:43:06;25.23;;;9.85;;
55493;SDS011;41355;50.390;19.096;2023-05-14T03:45:32;19.38;;;9.50;;
55493;SDS011;41355;50.390;19.096;2023-05-14T03:47:58;20.13;;;8.93;;
55493;SDS011;41355;50.390;19.096;2023-05-14T03:50:24;19.17;;;9.88;;
55493;SDS011;41355;50.390;19.096;2023-05-14T03:52:50;23.33;;;9.68;;
55493;SDS011;41355;50.390;19.096;2023-05-14T03:55:20;17.55;;;8.00;;
55493;SDS011;41355;50.390;19.096;2023-05-14T03:57:48;16.13;;;8.70;;
55493;SDS011;41355;50.390;19.096;2023-05-14T04:00:15;21.13;;;10.23;;
55493;SDS011;41355;50.390;19.096;2023-05-14T04:02:41;19.08;;;9.95;;
55493;SDS011;41355;50.390;19.096;2023-05-14T04:05:07;17.75;;;9.27;;
55493;SDS011;41355;50.390;19.096;2023-05-14T04:07:33;19.80;;;8.55;;
55493;SDS011;41355;50.390;19.096;2023-05-14T04:09:59;15.10;;;8.07;;
55493;SDS011;41355;50.390;19.096;2023-05-14T04:12:25;14.55;;;7.47;;
55493;SDS011;41355;50.390;19.096;2023-05-14T04:14:51;13.73;;;6.75;;
55493;SDS011;41355;50.390;19.096;2023-05-14T04:17:17;11.85;;;5.82;;
55493;SDS011;41355;50.390;19.096;2023-05-14T04:19:43;13.15;;;5.72;;
55493;SDS011;41355;50.390;19.096;2023-05-14T04:22:09;14.73;;;6.05;;
55493;SDS011;41355;50.390;19.096;2023-05-14T04:24:35;11.13;;;5.78;;
55493;SDS011;41355;50.390;19.096;2023-05-14T04:27:01;11.98;;;6.07;;
55493;SDS011;41355;50.390;19.096;2023-05-14T04:29:27;11.43;;;5.97;;
55493;SDS011;41355;50.390;19.096;2023-05-14T04:31:53;11.80;;;6.18;;
55493;SDS011;41355;50.390;19.096;2023-05-14T04:34:20;12.10;;;5.88;;
55493;SDS011;41355;50.390;19.096;2023-05-14T04:36:46;12.77;;;6.57;;
55493;SDS011;41355;50.390;19.096;2023-05-14T04:39:12;13.20;;;6.00;;
55493;SDS011;41355;50.390;19.096;2023-05-14T04:41:39;10.85;;;5.90;;
55493;SDS011;41355;50.390;19.096;2023-05-14T04:44:05;12.88;;;6.45;;
55493;SDS011;41355;50.390;19.096;2023-05-14T04:46:31;12.55;;;6.68;;
55493;SDS011;41355;50.390;19.096;2023-05-14T04:48:57;15.20;;;6.60;;
55493;SDS011;41355;50.390;19.096;2023-05-14T04:51:23;14.27;;;7.22;;
55493;SDS011;41355;50.390;19.096;2023-05-14T04:53:50;14.85;;;6.55;;
55493;SDS011;41355;50.390;19.096;2023-05-14T04:56:16;23.25;;;10.43;;
55493;SDS011;41355;50.390;19.096;2023-05-14T04:58:42;22.25;;;10.18;;
55493;SDS011;41355;50.390;19.096;2023-05-14T05:01:08;16.42;;;7.60;;
55493;SDS011;41355;50.390;19.096;2023-05-14T05:03:34;20.38;;;9.57;;
55493;SDS011;41355;50.390;19.096;2023-05-14T05:06:00;13.73;;;6.55;;
55493;SDS011;41355;50.390;19.096;2023-05-14T05:08:26;10.05;;;5.07;;
55493;SDS011;41355;50.390;19.096;2023-05-14T05:10:52;12.80;;;6.75;;
55493;SDS011;41355;50.390;19.096;2023-05-14T05:13:20;14.05;;;6.18;;
55493;SDS011;41355;50.390;19.096;2023-05-14T05:15:46;15.65;;;7.53;;
55493;SDS011;41355;50.390;19.096;2023-05-14T05:18:12;14.60;;;6.95;;
55493;SDS011;41355;50.390;19.096;2023-05-14T05:20:38;13.65;;;6.82;;
55493;SDS011;41355;50.390;19.096;2023-05-14T05:23:04;11.85;;;6.57;;
55493;SDS011;41355;50.390;19.096;2023-05-14T05:25:30;13.63;;;6.65;;
55493;SDS011;41355;50.390;19.096;2023-05-14T05:27:56;17.25;;;7.18;;
55493;SDS011;41355;50.390;19.096;2023-05-14T05:30:22;16.92;;;7.28;;
55493;SDS011;41355;50.390;19.096;2023-05-14T05:32:48;16.25;;;7.05;;
55493;SDS011;41355;50.390;19.096;2023-05-14T05:35:14;16.60;;;7.03;;
55493;SDS011;41355;50.390;19.096;2023-05-14T05:37:41;14.50;;;6.28;;
55493;SDS011;41355;50.390;19.096;2023-05-14T05:40:09;12.55;;;6.10;;
55493;SDS011;41355;50.390;19.096;2023-05-14T05:42:35;13.52;;;6.10;;
55493;SDS011;41355;50.390;19.096;2023-05-14T05:45:01;19.23;;;8.35;;
55493;SDS011;41355;50.390;19.096;2023-05-14T05:47:27;25.45;;;11.60;;
55493;SDS011;41355;50.390;19.096;2023-05-14T05:49:54;20.10;;;8.90;;
55493;SDS011;41355;50.390;19.096;2023-05-14T05:52:20;18.08;;;7.75;;
55493;SDS011;41355;50.390;19.096;2023-05-14T05:54:46;19.38;;;8.88;;
55493;SDS011;41355;50.390;19.096;2023-05-14T05:57:12;16.67;;;8.18;;
55493;SDS011;41355;50.390;19.096;2023-05-14T05:59:38;13.20;;;5.97;;
55493;SDS011;41355;50.390;19.096;2023-05-14T06:02:04;15.05;;;6.25;;
55493;SDS011;41355;50.390;19.096;2023-05-14T06:04:30;13.05;;;5.80;;
55493;SDS011;41355;50.390;19.096;2023-05-14T06:06:56;11.55;;;5.05;;
55493;SDS011;41355;50.390;19.096;2023-05-14T06:09:22;10.88;;;3.83;;
55493;SDS011;41355;50.390;19.096;2023-05-14T06:11:48;11.23;;;4.88;;
55493;SDS011;41355;50.390;19.096;2023-05-14T06:14:14;13.02;;;4.63;;
55493;SDS011;41355;50.390;19.096;2023-05-14T06:16:40;13.05;;;4.40;;
55493;SDS011;41355;50.390;19.096;2023-05-14T06:19:06;9.75;;;3.80;;
55493;SDS011;41355;50.390;19.096;2023-05-14T06:21:32;13.95;;;4.55;;
55493;SDS011;41355;50.390;19.096;2023-05-14T06:23:58;10.98;;;4.68;;
55493;SDS011;41355;50.390;19.096;2023-05-14T06:26:24;10.95;;;3.90;;
55493;SDS011;41355;50.390;19.096;2023-05-14T06:28:50;7.20;;;2.42;;
55493;SDS011;41355;50.390;19.096;2023-05-14T06:31:17;8.75;;;2.50;;
55493;SDS011;41355;50.390;19.096;2023-05-14T06:33:43;9.48;;;2.42;;
55493;SDS011;41355;50.390;19.096;2023-05-14T06:36:09;8.82;;;2.60;;
55493;SDS011;41355;50.390;19.096;2023-05-14T06:38:35;8.88;;;3.00;;
55493;SDS011;41355;50.390;19.096;2023-05-14T06:41:01;3.67;;;1.50;;
55493;SDS011;41355;50.390;19.096;2023-05-14T06:43:27;5.40;;;1.98;;
55493;SDS011;41355;50.390;19.096;2023-05-14T06:45:53;3.17;;;1.40;;
55493;SDS011;41355;50.390;19.096;2023-05-14T06:48:19;5.07;;;1.70;;
55493;SDS011;41355;50.390;19.096;2023-05-14T06:50:46;4.22;;;1.90;;
55493;SDS011;41355;50.390;19.096;2023-05-14T06:53:12;6.47;;;1.85;;
55493;SDS011;41355;50.390;19.096;2023-05-14T06:55:39;7.28;;;2.00;;
55493;SDS011;41355;50.390;19.096;2023-05-14T06:58:05;8.27;;;2.00;;
55493;SDS011;41355;50.390;19.096;2023-05-14T07:00:32;3.83;;;1.83;;
55493;SDS011;41355;50.390;19.096;2023-05-14T07:02:58;5.45;;;2.20;;
55493;SDS011;41355;50.390;19.096;2023-05-14T07:05:24;5.63;;;2.10;;
55493;SDS011;41355;50.390;19.096;2023-05-14T07:07:50;5.20;;;2.55;;
55493;SDS011;41355;50.390;19.096;2023-05-14T07:10:16;4.65;;;2.10;;
55493;SDS011;41355;50.390;19.096;2023-05-14T07:12:42;6.05;;;2.25;;
55493;SDS011;41355;50.390;19.096;2023-05-14T07:15:09;5.75;;;2.42;;
55493;SDS011;41355;50.390;19.096;2023-05-14T07:17:36;3.75;;;1.85;;
55493;SDS011;41355;50.390;19.096;2023-05-14T07:20:02;5.45;;;2.03;;
55493;SDS011;41355;50.390;19.096;2023-05-14T07:22:28;3.65;;;1.70;;
55493;SDS011;41355;50.390;19.096;2023-05-14T07:24:54;3.30;;;1.42;;
55493;SDS011;41355;50.390;19.096;2023-05-14T07:27:20;4.10;;;1.70;;
55493;SDS011;41355;50.390;19.096;2023-05-14T07:29:46;3.85;;;1.80;;
55493;SDS011;41355;50.390;19.096;2023-05-14T07:32:12;4.05;;;1.60;;
55493;SDS011;41355;50.390;19.096;2023-05-14T07:34:38;3.15;;;1.60;;
55493;SDS011;41355;50.390;19.096;2023-05-14T07:37:04;3.47;;;1.55;;
55493;SDS011;41355;50.390;19.096;2023-05-14T07:39:30;2.22;;;1.10;;
55493;SDS011;41355;50.390;19.096;2023-05-14T07:41:56;3.08;;;1.40;;
55493;SDS011;41355;50.390;19.096;2023-05-14T07:44:22;3.17;;;1.40;;
55493;SDS011;41355;50.390;19.096;2023-05-14T07:46:48;3.75;;;1.60;;
55493;SDS011;41355;50.390;19.096;2023-05-14T07:49:14;4.50;;;1.80;;
55493;SDS011;41355;50.390;19.096;2023-05-14T07:51:40;3.83;;;1.60;;
55493;SDS011;41355;50.390;19.096;2023-05-14T07:54:06;4.20;;;1.85;;
55493;SDS011;41355;50.390;19.096;2023-05-14T07:56:32;5.45;;;1.70;;
55493;SDS011;41355;50.390;19.096;2023-05-14T07:58:58;4.60;;;1.65;;
55493;SDS011;41355;50.390;19.096;2023-05-14T08:01:24;3.78;;;1.40;;
55493;SDS011;41355;50.390;19.096;2023-05-14T08:03:51;4.90;;;1.65;;
55493;SDS011;41355;50.390;19.096;2023-05-14T08:06:17;3.47;;;1.33;;
55493;SDS011;41355;50.390;19.096;2023-05-14T08:08:45;3.35;;;1.50;;
55493;SDS011;41355;50.390;19.096;2023-05-14T08:11:11;3.70;;;1.42;;
55493;SDS011;41355;50.390;19.096;2023-05-14T08:13:37;3.25;;;1.50;;
55493;SDS011;41355;50.390;19.096;2023-05-14T08:16:03;4.00;;;1.83;;
55493;SDS011;41355;50.390;19.096;2023-05-14T08:18:29;3.20;;;1.35;;
55493;SDS011;41355;50.390;19.096;2023-05-14T08:20:55;3.92;;;1.60;;
55493;SDS011;41355;50.390;19.096;2023-05-14T08:23:21;4.20;;;1.90;;
55493;SDS011;41355;50.390;19.096;2023-05-14T08:25:47;3.35;;;1.50;;
55493;SDS011;41355;50.390;19.096;2023-05-14T08:28:13;3.35;;;1.55;;
55493;SDS011;41355;50.390;19.096;2023-05-14T08:30:39;4.93;;;1.67;;
55493;SDS011;41355;50.390;19.096;2023-05-14T08:33:05;4.90;;;1.70;;
55493;SDS011;41355;50.390;19.096;2023-05-14T08:35:31;4.20;;;1.83;;
55493;SDS011;41355;50.390;19.096;2023-05-14T08:37:57;3.85;;;1.75;;
55493;SDS011;41355;50.390;19.096;2023-05-14T08:40:23;5.93;;;1.88;;
55493;SDS011;41355;50.390;19.096;2023-05-14T08:42:49;4.53;;;2.00;;
55493;SDS011;41355;50.390;19.096;2023-05-14T08:45:17;3.10;;;1.50;;
55493;SDS011;41355;50.390;19.096;2023-05-14T08:47:47;4.15;;;1.90;;
55493;SDS011;41355;50.390;19.096;2023-05-14T08:50:14;3.40;;;1.63;;
55493;SDS011;41355;50.390;19.096;2023-05-14T08:52:40;3.72;;;1.50;;
55493;SDS011;41355;50.390;19.096;2023-05-14T08:55:07;4.07;;;1.65;;
55493;SDS011;41355;50.390;19.096;2023-05-14T08:57:33;3.28;;;1.60;;
55493;SDS011;41355;50.390;19.096;2023-05-14T09:00:01;4.57;;;2.17;;
55493;SDS011;41355;50.390;19.096;2023-05-14T09:02:38;5.55;;;2.10;;
55493;SDS011;41355;50.390;19.096;2023-05-14T09:05:05;4.80;;;1.95;;
55493;SDS011;41355;50.390;19.096;2023-05-14T09:07:31;3.88;;;2.08;;
55493;SDS011;41355;50.390;19.096;2023-05-14T09:09:58;4.60;;;2.30;;
55493;SDS011;41355;50.390;19.096;2023-05-14T09:12:24;3.78;;;2.00;;
55493;SDS011;41355;50.390;19.096;2023-05-14T09:14:50;4.32;;;2.03;;
55493;SDS011;41355;50.390;19.096;2023-05-14T09:17:17;4.20;;;2.30;;
55493;SDS011;41355;50.390;19.096;2023-05-14T09:19:51;5.63;;;2.25;;
55493;SDS011;41355;50.390;19.096;2023-05-14T09:22:17;4.72;;;2.00;;
55493;SDS011;41355;50.390;19.096;2023-05-14T09:24:43;5.55;;;2.00;;
55493;SDS011;41355;50.390;19.096;2023-05-14T09:27:14;4.25;;;2.33;;
55493;SDS011;41355;50.390;19.096;2023-05-14T09:29:43;4.57;;;2.25;;
55493;SDS011;41355;50.390;19.096;2023-05-14T09:32:09;5.68;;;2.25;;
55493;SDS011;41355;50.390;19.096;2023-05-14T09:34:35;5.93;;;2.30;;
55493;SDS011;41355;50.390;19.096;2023-05-14T09:37:05;4.18;;;2.13;;
55493;SDS011;41355;50.390;19.096;2023-05-14T09:39:32;6.72;;;3.28;;
55493;SDS011;41355;50.390;19.096;2023-05-14T09:41:58;4.53;;;2.17;;
55493;SDS011;41355;50.390;19.096;2023-05-14T09:44:24;4.70;;;2.40;;
55493;SDS011;41355;50.390;19.096;2023-05-14T09:46:50;5.35;;;2.17;;
55493;SDS011;41355;50.390;19.096;2023-05-14T09:49:17;9.55;;;2.60;;
55493;SDS011;41355;50.390;19.096;2023-05-14T09:51:43;6.10;;;2.10;;
55493;SDS011;41355;50.390;19.096;2023-05-14T09:54:09;5.90;;;2.47;;
55493;SDS011;41355;50.390;19.096;2023-05-14T09:56:36;5.78;;;2.20;;
55493;SDS011;41355;50.390;19.096;2023-05-14T09:59:03;6.00;;;3.10;;
55493;SDS011;41355;50.390;19.096;2023-05-14T10:01:29;6.32;;;2.33;;
55493;SDS011;41355;50.390;19.096;2023-05-14T10:03:57;4.90;;;2.30;;
55493;SDS011;41355;50.390;19.096;2023-05-14T10:06:29;5.57;;;2.10;;
55493;SDS011;41355;50.390;19.096;2023-05-14T10:09:01;5.82;;;2.13;;
55493;SDS011;41355;50.390;19.096;2023-05-14T10:11:30;5.50;;;2.80;;
55493;SDS011;41355;50.390;19.096;2023-05-14T10:14:00;4.07;;;2.17;;
55493;SDS011;41355;50.390;19.096;2023-05-14T10:16:32;6.68;;;2.38;;
55493;SDS011;41355;50.390;19.096;2023-05-14T10:19:09;6.85;;;2.40;;
55493;SDS011;41355;50.390;19.096;2023-05-14T10:21:36;4.70;;;2.47;;
55493;SDS011;41355;50.390;19.096;2023-05-14T10:24:02;7.05;;;2.63;;
55493;SDS011;41355;50.390;19.096;2023-05-14T10:26:29;8.00;;;4.38;;
55493;SDS011;41355;50.390;19.096;2023-05-14T10:28:55;6.28;;;3.22;;
55493;SDS011;41355;50.390;19.096;2023-05-14T10:31:22;6.00;;;2.70;;
55493;SDS011;41355;50.390;19.096;2023-05-14T10:33:49;10.55;;;3.33;;
55493;SDS011;41355;50.390;19.096;2023-05-14T10:36:16;6.95;;;2.92;;
55493;SDS011;41355;50.390;19.096;2023-05-14T10:38:43;6.40;;;3.10;;
55493;SDS011;41355;50.390;19.096;2023-05-14T10:41:10;6.38;;;2.47;;
55493;SDS011;41355;50.390;19.096;2023-05-14T10:43:37;10.68;;;3.53;;
55493;SDS011;41355;50.390;19.096;2023-05-14T10:46:03;7.93;;;2.30;;
55493;SDS011;41355;50.390;19.096;2023-05-14T10:48:30;5.15;;;2.58;;
55493;SDS011;41355;50.390;19.096;2023-05-14T10:50:56;4.65;;;2.13;;
55493;SDS011;41355;50.390;19.096;2023-05-14T10:53:32;4.53;;;2.20;;
55493;SDS011;41355;50.390;19.096;2023-05-14T10:58:31;4.47;;;2.33;;
55493;SDS011;41355;50.390;19.096;2023-05-14T11:00:59;4.43;;;2.17;;
55493;SDS011;41355;50.390;19.096;2023-05-14T11:03:29;5.15;;;2.28;;
55493;SDS011;41355;50.390;19.096;2023-05-14T11:05:55;4.25;;;2.20;;
55493;SDS011;41355;50.390;19.096;2023-05-14T11:08:22;4.57;;;2.20;;
55493;SDS011;41355;50.390;19.096;2023-05-14T11:10:53;7.30;;;2.60;;
55493;SDS011;41355;50.390;19.096;2023-05-14T11:13:20;4.78;;;2.22;;
55493;SDS011;41355;50.390;19.096;2023-05-14T11:15:46;5.75;;;2.80;;
55493;SDS011;41355;50.390;19.096;2023-05-14T11:18:24;7.28;;;2.50;;
55493;SDS011;41355;50.390;19.096;2023-05-14T11:20:50;5.25;;;2.33;;
55493;SDS011;41355;50.390;19.096;2023-05-14T11:23:16;5.22;;;2.20;;
55493;SDS011;41355;50.390;19.096;2023-05-14T11:25:42;5.43;;;2.63;;
55493;SDS011;41355;50.390;19.096;2023-05-14T11:28:08;4.50;;;2.38;;
55493;SDS011;41355;50.390;19.096;2023-05-14T11:30:34;6.18;;;2.40;;
55493;SDS011;41355;50.390;19.096;2023-05-14T11:33:01;6.18;;;2.30;;
55493;SDS011;41355;50.390;19.096;2023-05-14T11:35:27;6.65;;;2.25;;
55493;SDS011;41355;50.390;19.096;2023-05-14T11:37:53;6.40;;;2.80;;
55493;SDS011;41355;50.390;19.096;2023-05-14T11:40:19;4.50;;;2.13;;
55493;SDS011;41355;50.390;19.096;2023-05-14T11:42:45;5.47;;;2.42;;
55493;SDS011;41355;50.390;19.096;2023-05-14T11:45:12;8.05;;;3.47;;
55493;SDS011;41355;50.390;19.096;2023-05-14T11:47:39;11.23;;;4.47;;
55493;SDS011;41355;50.390;19.096;2023-05-14T11:50:06;6.57;;;2.45;;
55493;SDS011;41355;50.390;19.096;2023-05-14T11:52:36;6.22;;;2.85;;
55493;SDS011;41355;50.390;19.096;2023-05-14T11:55:02;4.97;;;2.00;;
55493;SDS011;41355;50.390;19.096;2023-05-14T11:57:29;6.03;;;2.40;;
55493;SDS011;41355;50.390;19.096;2023-05-14T11:59:55;9.50;;;3.30;;
55493;SDS011;41355;50.390;19.096;2023-05-14T12:02:21;5.45;;;1.95;;
55493;SDS011;41355;50.390;19.096;2023-05-14T12:04:50;4.35;;;2.00;;
55493;SDS011;41355;50.390;19.096;2023-05-14T12:07:18;5.10;;;1.70;;
55493;SDS011;41355;50.390;19.096;2023-05-14T12:09:44;4.63;;;2.05;;
55493;SDS011;41355;50.390;19.096;2023-05-14T12:12:13;3.78;;;1.67;;
55493;SDS011;41355;50.390;19.096;2023-05-14T12:14:41;5.45;;;2.50;;
55493;SDS011;41355;50.390;19.096;2023-05-14T12:17:16;5.07;;;2.10;;
55493;SDS011;41355;50.390;19.096;2023-05-14T12:19:43;6.45;;;2.05;;
55493;SDS011;41355;50.390;19.096;2023-05-14T12:22:10;3.78;;;1.85;;
55493;SDS011;41355;50.390;19.096;2023-05-14T12:24:36;6.40;;;1.75;;
55493;SDS011;41355;50.390;19.096;2023-05-14T12:27:03;7.05;;;2.10;;
55493;SDS011;41355;50.390;19.096;2023-05-14T12:29:29;5.03;;;1.73;;
55493;SDS011;41355;50.390;19.096;2023-05-14T12:31:56;4.82;;;1.80;;
55493;SDS011;41355;50.390;19.096;2023-05-14T12:34:23;3.40;;;1.60;;
55493;SDS011;41355;50.390;19.096;2023-05-14T12:36:49;4.00;;;1.60;;
55493;SDS011;41355;50.390;19.096;2023-05-14T12:39:16;6.07;;;2.00;;
55493;SDS011;41355;50.390;19.096;2023-05-14T12:41:42;5.40;;;1.60;;
55493;SDS011;41355;50.390;19.096;2023-05-14T12:44:08;5.95;;;2.60;;
55493;SDS011;41355;50.390;19.096;2023-05-14T12:46:34;3.85;;;1.33;;
55493;SDS011;41355;50.390;19.096;2023-05-14T12:49:00;9.00;;;1.80;;
55493;SDS011;41355;50.390;19.096;2023-05-14T12:51:26;5.35;;;2.20;;
55493;SDS011;41355;50.390;19.096;2023-05-14T12:53:52;4.85;;;1.92;;
55493;SDS011;41355;50.390;19.096;2023-05-14T12:56:18;3.47;;;1.70;;
55493;SDS011;41355;50.390;19.096;2023-05-14T12:58:45;5.03;;;1.83;;
55493;SDS011;41355;50.390;19.096;2023-05-14T13:01:11;5.88;;;2.05;;
55493;SDS011;41355;50.390;19.096;2023-05-14T13:03:37;6.00;;;2.60;;
55493;SDS011;41355;50.390;19.096;2023-05-14T13:06:03;5.40;;;2.15;;
55493;SDS011;41355;50.390;19.096;2023-05-14T13:08:30;5.03;;;2.03;;
55493;SDS011;41355;50.390;19.096;2023-05-14T13:10:56;4.78;;;1.70;;
55493;SDS011;41355;50.390;19.096;2023-05-14T13:13:22;5.05;;;1.70;;
55493;SDS011;41355;50.390;19.096;2023-05-14T13:15:48;4.43;;;1.92;;
55493;SDS011;41355;50.390;19.096;2023-05-14T13:18:15;4.78;;;1.98;;
55493;SDS011;41355;50.390;19.096;2023-05-14T13:20:41;4.18;;;1.80;;
55493;SDS011;41355;50.390;19.096;2023-05-14T13:23:07;5.35;;;2.08;;
55493;SDS011;41355;50.390;19.096;2023-05-14T13:25:34;7.82;;;1.58;;
55493;SDS011;41355;50.390;19.096;2023-05-14T13:28:00;7.22;;;1.80;;
55493;SDS011;41355;50.390;19.096;2023-05-14T13:30:26;4.03;;;1.58;;
55493;SDS011;41355;50.390;19.096;2023-05-14T13:32:52;3.47;;;1.60;;
55493;SDS011;41355;50.390;19.096;2023-05-14T13:35:18;3.45;;;1.45;;
55493;SDS011;41355;50.390;19.096;2023-05-14T13:37:45;4.43;;;1.55;;
55493;SDS011;41355;50.390;19.096;2023-05-14T13:40:11;6.45;;;1.42;;
55493;SDS011;41355;50.390;19.096;2023-05-14T13:42:37;5.05;;;1.55;;
55493;SDS011;41355;50.390;19.096;2023-05-14T13:45:03;3.53;;;1.52;;
55493;SDS011;41355;50.390;19.096;2023-05-14T13:47:30;4.28;;;1.63;;
55493;SDS011;41355;50.390;19.096;2023-05-14T13:49:57;3.70;;;1.52;;
55493;SDS011;41355;50.390;19.096;2023-05-14T13:52:23;6.22;;;1.73;;
55493;SDS011;41355;50.390;19.096;2023-05-14T13:54:49;6.65;;;2.08;;
55493;SDS011;41355;50.390;19.096;2023-05-14T13:57:15;9.20;;;1.70;;
55493;SDS011;41355;50.390;19.096;2023-05-14T13:59:41;6.43;;;2.10;;
55493;SDS011;41355;50.390;19.096;2023-05-14T14:02:07;3.55;;;1.50;;
55493;SDS011;41355;50.390;19.096;2023-05-14T14:04:33;3.60;;;1.50;;
55493;SDS011;41355;50.390;19.096;2023-05-14T14:06:59;3.08;;;1.30;;
55493;SDS011;41355;50.390;19.096;2023-05-14T14:09:25;3.20;;;1.50;;
55493;SDS011;41355;50.390;19.096;2023-05-14T14:11:51;3.15;;;1.42;;
55493;SDS011;41355;50.390;19.096;2023-05-14T14:14:17;4.15;;;1.70;;
55493;SDS011;41355;50.390;19.096;2023-05-14T14:16:43;4.45;;;1.70;;
55493;SDS011;41355;50.390;19.096;2023-05-14T14:19:09;4.35;;;1.50;;
55493;SDS011;41355;50.390;19.096;2023-05-14T14:21:35;4.32;;;1.70;;
55493;SDS011;41355;50.390;19.096;2023-05-14T14:24:04;3.38;;;1.45;;
55493;SDS011;41355;50.390;19.096;2023-05-14T14:26:30;3.25;;;1.65;;
55493;SDS011;41355;50.390;19.096;2023-05-14T14:28:56;5.65;;;1.92;;
55493;SDS011;41355;50.390;19.096;2023-05-14T14:31:22;5.20;;;2.30;;
55493;SDS011;41355;50.390;19.096;2023-05-14T14:33:49;8.65;;;2.50;;